sensor_id;sensor_type;location;lat;lon;timestamp;P1;durP1;ratioP1;P2;durP2;ratioP2
38190;SDS011;25191;47.510;19.124;2023-07-22T00:10:24;4.00;;;3.35;;
38190;SDS011;25191;47.510;19.124;2023-07-22T00:30:25;7.60;;;3.60;;
38190;SDS011;25191;47.510;19.124;2023-07-22T00:50:25;8.63;;;4.30;;
38190;SDS011;25191;47.510;19.124;2023-07-22T01:10:26;6.80;;;4.40;;
38190;SDS011;25191;47.510;19.124;2023-07-22T01:30:29;5.80;;;4.45;;
38190;SDS011;25191;47.510;19.124;2023-07-22T01:50:32;4.90;;;3.80;;
38190;SDS011;25191;47.510;19.124;2023-07-22T02:10:32;6.05;;;4.63;;
38190;SDS011;25191;47.510;19.124;2023-07-22T02:30:36;5.63;;;4.40;;
38190;SDS011;25191;47.510;19.124;2023-07-22T02:50:37;6.60;;;4.07;;
38190;SDS011;25191;47.510;19.124;2023-07-22T03:10:37;5.85;;;4.72;;
38190;SDS011;25191;47.510;19.124;2023-07-22T03:30:38;5.43;;;4.80;;
38190;SDS011;25191;47.510;19.124;2023-07-22T03:50:38;7.05;;;4.53;;
38190;SDS011;25191;47.510;19.124;2023-07-22T04:10:52;7.28;;;5.25;;
38190;SDS011;25191;47.510;19.124;2023-07-22T04:30:57;8.73;;;5.63;;
38190;SDS011;25191;47.510;19.124;2023-07-22T04:50:58;8.18;;;4.65;;
38190;SDS011;25191;47.510;19.124;2023-07-22T05:10:59;6.28;;;3.67;;
38190;SDS011;25191;47.510;19.124;2023-07-22T05:30:59;6.05;;;4.20;;
38190;SDS011;25191;47.510;19.124;2023-07-22T05:51:00;5.43;;;4.13;;
38190;SDS011;25191;47.510;19.124;2023-07-22T06:11:00;5.90;;;4.35;;
38190;SDS011;25191;47.510;19.124;2023-07-22T06:31:02;6.50;;;4.70;;
38190;SDS011;25191;47.510;19.124;2023-07-22T06:51:02;6.55;;;4.30;;
38190;SDS011;25191;47.510;19.124;2023-07-22T07:11:04;8.50;;;4.00;;
38190;SDS011;25191;47.510;19.124;2023-07-22T07:31:04;7.43;;;4.25;;
38190;SDS011;25191;47.510;19.124;2023-07-22T07:51:05;6.10;;;4.10;;
38190;SDS011;25191;47.510;19.124;2023-07-22T08:11:07;4.15;;;3.25;;
38190;SDS011;25191;47.510;19.124;2023-07-22T08:31:10;4.15;;;3.20;;
38190;SDS011;25191;47.510;19.124;2023-07-22T08:51:12;3.78;;;3.22;;
38190;SDS011;25191;47.510;19.124;2023-07-22T09:11:15;4.40;;;2.80;;
38190;SDS011;25191;47.510;19.124;2023-07-22T09:31:16;4.20;;;2.70;;
38190;SDS011;25191;47.510;19.124;2023-07-22T09:51:17;3.22;;;2.30;;
38190;SDS011;25191;47.510;19.124;2023-07-22T10:11:19;3.53;;;2.38;;
38190;SDS011;25191;47.510;19.124;2023-07-22T10:31:21;2.78;;;1.88;;
38190;SDS011;25191;47.510;19.124;2023-07-22T10:51:22;2.28;;;1.60;;
38190;SDS011;25191;47.510;19.124;2023-07-22T11:11:39;5.43;;;1.90;;
38190;SDS011;25191;47.510;19.124;2023-07-22T11:31:43;1.83;;;1.60;;
38190;SDS011;25191;47.510;19.124;2023-07-22T11:51:45;2.90;;;1.50;;
38190;SDS011;25191;47.510;19.124;2023-07-22T12:11:46;1.90;;;1.23;;
38190;SDS011;25191;47.510;19.124;2023-07-22T12:31:50;1.60;;;1.20;;
38190;SDS011;25191;47.510;19.124;2023-07-22T12:51:50;2.42;;;1.50;;
38190;SDS011;25191;47.510;19.124;2023-07-22T13:11:51;2.45;;;1.30;;
38190;SDS011;25191;47.510;19.124;2023-07-22T13:31:53;1.67;;;1.08;;
38190;SDS011;25191;47.510;19.124;2023-07-22T13:51:54;1.53;;;1.20;;
38190;SDS011;25191;47.510;19.124;2023-07-22T14:11:55;6.00;;;1.40;;
38190;SDS011;25191;47.510;19.124;2023-07-22T14:31:56;3.72;;;1.40;;
38190;SDS011;25191;47.510;19.124;2023-07-22T14:51:57;2.95;;;1.13;;
38190;SDS011;25191;47.510;19.124;2023-07-22T15:11:58;3.15;;;1.00;;
38190;SDS011;25191;47.510;19.124;2023-07-22T15:32:00;1.20;;;0.98;;
38190;SDS011;25191;47.510;19.124;2023-07-22T15:52:01;3.67;;;1.40;;
38190;SDS011;25191;47.510;19.124;2023-07-22T16:12:02;1.20;;;1.00;;
38190;SDS011;25191;47.510;19.124;2023-07-22T16:32:03;0.80;;;0.80;;
38190;SDS011;25191;47.510;19.124;2023-07-22T16:52:04;1.08;;;0.85;;
38190;SDS011;25191;47.510;19.124;2023-07-22T17:12:05;1.25;;;0.95;;
38190;SDS011;25191;47.510;19.124;2023-07-22T17:32:07;0.90;;;0.90;;
38190;SDS011;25191;47.510;19.124;2023-07-22T17:52:07;1.50;;;0.80;;
38190;SDS011;25191;47.510;19.124;2023-07-22T18:12:08;0.93;;;0.80;;
38190;SDS011;25191;47.510;19.124;2023-07-22T18:32:13;1.02;;;0.90;;
38190;SDS011;25191;47.510;19.124;2023-07-22T18:52:14;0.82;;;0.82;;
38190;SDS011;25191;47.510;19.124;2023-07-22T19:12:15;1.10;;;0.95;;
38190;SDS011;25191;47.510;19.124;2023-07-22T19:32:16;1.77;;;0.98;;
38190;SDS011;25191;47.510;19.124;2023-07-22T19:52:16;1.25;;;1.00;;
38190;SDS011;25191;47.510;19.124;2023-07-22T20:12:23;0.95;;;0.90;;
38190;SDS011;25191;47.510;19.124;2023-07-22T20:32:24;1.25;;;0.90;;
38190;SDS011;25191;47.510;19.124;2023-07-22T20:52:24;1.35;;;0.93;;
38190;SDS011;25191;47.510;19.124;2023-07-22T21:12:26;1.08;;;0.95;;
38190;SDS011;25191;47.510;19.124;2023-07-22T21:32:26;0.98;;;0.93;;
38190;SDS011;25191;47.510;19.124;2023-07-22T21:52:27;0.85;;;0.85;;
38190;SDS011;25191;47.510;19.124;2023-07-22T22:12:27;1.10;;;1.00;;
38190;SDS011;25191;47.510;19.124;2023-07-22T22:32:28;1.00;;;0.90;;
38190;SDS011;25191;47.510;19.124;2023-07-22T22:52:28;1.02;;;0.93;;
38190;SDS011;25191;47.510;19.124;2023-07-22T23:12:29;1.05;;;0.95;;
38190;SDS011;25191;47.510;19.124;2023-07-22T23:32:29;1.25;;;1.15;;
38190;SDS011;25191;47.510;19.124;2023-07-22T23:52:30;1.17;;;1.10;;
